Time;durP1;ratioP1;P1;durP2;ratioP2;P2;SDS_P1;SDS_P2;PMS_P1;PMS_P2;Temp;Humidity;BMP_temperature;BMP_pressure;BME280_temperature;BME280_humidity;BME280_pressure;Samples;Min_cycle;Max_cycle;Signal;HPM_P1;HPM_P2
2023/08/12 00:01:01;;;;;;;19.47;6.80;;;19.90;99.90;;;;;;5011688;28;20569;-71
2023/08/12 00:03:28;;;;;;;21.17;6.40;;;19.90;99.90;;;;;;5012923;28;20452;-71
2023/08/12 00:05:56;;;;;;;27.83;6.47;;;20.00;99.90;;;;;;5013233;28;20458;-71
2023/08/12 00:08:23;;;;;;;17.80;6.73;;;19.90;99.90;;;;;;5012779;28;20460;-71
2023/08/12 00:10:49;;;;;;;26.13;6.70;;;19.90;99.90;;;;;;5012203;28;20450;-71
2023/08/12 00:13:17;;;;;;;21.73;6.50;;;19.90;99.90;;;;;;5013108;28;20720;-71
2023/08/12 00:15:44;;;;;;;31.93;6.43;;;19.90;99.90;;;;;;5014609;28;20552;-71
2023/08/12 00:18:12;;;;;;;28.70;6.87;;;19.90;99.90;;;;;;5013074;28;20520;-71
2023/08/12 00:20:39;;;;;;;36.33;7.00;;;19.80;99.90;;;;;;5012311;28;20997;-71
2023/08/12 00:23:06;;;;;;;43.13;8.50;;;19.70;99.90;;;;;;5012777;28;20450;-71
2023/08/12 00:25:32;;;;;;;36.83;8.37;;;19.70;99.90;;;;;;5012627;28;20947;-71
2023/08/12 00:27:59;;;;;;;78.67;9.50;;;19.70;99.90;;;;;;5012744;28;20447;-71
2023/08/12 00:30:26;;;;;;;61.77;7.83;;;19.70;99.90;;;;;;5017994;28;20469;-72
2023/08/12 00:32:52;;;;;;;73.93;8.93;;;19.80;99.90;;;;;;5018417;28;20505;-71
2023/08/12 00:35:20;;;;;;;38.97;8.33;;;19.80;99.90;;;;;;5012178;28;21000;-71
2023/08/12 00:37:47;;;;;;;42.23;8.10;;;19.80;99.90;;;;;;5012088;28;20802;-71
2023/08/12 00:40:14;;;;;;;42.53;7.20;;;19.80;99.90;;;;;;5011937;28;20502;-71
2023/08/12 00:42:41;;;;;;;46.30;7.90;;;19.80;99.90;;;;;;5012536;28;20450;-71
2023/08/12 00:45:12;;;;;;;50.97;7.63;;;19.70;99.90;;;;;;5012194;28;20451;-71
2023/08/12 00:47:39;;;;;;;50.50;9.00;;;19.70;99.90;;;;;;5011971;28;20873;-71
2023/08/12 00:50:07;;;;;;;39.27;6.63;;;19.70;99.90;;;;;;5011514;28;20462;-71
2023/08/12 00:52:35;;;;;;;57.63;7.77;;;19.70;99.90;;;;;;5012180;28;20446;-71
2023/08/12 00:55:02;;;;;;;40.03;7.70;;;19.70;99.90;;;;;;5012349;28;20523;-71
2023/08/12 00:57:29;;;;;;;43.33;8.93;;;19.70;99.90;;;;;;5012593;28;20509;-71
2023/08/12 00:59:57;;;;;;;45.33;8.57;;;19.70;99.90;;;;;;5011978;28;20493;-71
2023/08/12 01:02:23;;;;;;;33.90;7.13;;;19.70;99.90;;;;;;5011771;28;20454;-71
2023/08/12 01:04:50;;;;;;;44.60;7.17;;;19.70;99.90;;;;;;5013940;28;20463;-71
2023/08/12 01:07:17;;;;;;;59.70;8.20;;;19.60;99.90;;;;;;5014167;28;20553;-71
2023/08/12 01:09:45;;;;;;;43.47;8.70;;;19.60;99.90;;;;;;5011627;28;20510;-71
2023/08/12 01:12:18;;;;;;;40.90;8.43;;;19.50;99.90;;;;;;5018939;28;20510;-71
2023/08/12 01:14:50;;;;;;;58.20;8.43;;;19.50;99.90;;;;;;5012092;28;20504;-71
2023/08/12 01:17:17;;;;;;;58.27;9.40;;;19.50;99.90;;;;;;5011729;28;20516;-71
2023/08/12 01:19:44;;;;;;;54.67;9.20;;;19.50;99.90;;;;;;5011506;28;20524;-71
2023/08/12 01:22:13;;;;;;;69.27;8.90;;;19.50;99.90;;;;;;5011665;28;20462;-71
2023/08/12 01:24:43;;;;;;;42.67;7.70;;;19.60;99.90;;;;;;5012148;28;20565;-71
2023/08/12 01:27:11;;;;;;;20.67;7.17;;;19.60;99.90;;;;;;5011844;28;20454;-71
2023/08/12 01:29:41;;;;;;;30.57;6.50;;;19.60;99.90;;;;;;5010832;28;20544;-71
2023/08/12 01:32:12;;;;;;;33.17;6.67;;;19.60;99.90;;;;;;5011500;28;20480;-71
2023/08/12 01:34:44;;;;;;;34.00;6.67;;;19.60;99.90;;;;;;5012027;28;20458;-71
2023/08/12 01:37:18;;;;;;;22.77;6.50;;;19.60;99.90;;;;;;5011574;28;20462;-71
2023/08/12 01:39:47;;;;;;;22.53;6.60;;;19.60;99.90;;;;;;5010639;28;20752;-71
2023/08/12 01:42:17;;;;;;;29.43;6.70;;;19.60;99.90;;;;;;5010794;28;20454;-71
2023/08/12 01:44:44;;;;;;;30.97;7.00;;;19.60;99.90;;;;;;5007812;28;20453;-71
2023/08/12 01:47:11;;;;;;;30.77;6.60;;;19.60;99.90;;;;;;5011785;28;20446;-71
2023/08/12 01:49:38;;;;;;;36.60;7.70;;;19.60;99.90;;;;;;5011143;28;20477;-71
2023/08/12 01:52:05;;;;;;;25.43;7.00;;;19.60;99.90;;;;;;5011346;28;20447;-71
2023/08/12 01:54:33;;;;;;;21.27;7.60;;;19.70;99.90;;;;;;5016136;28;20450;-72
2023/08/12 01:57:05;;;;;;;29.13;6.43;;;19.70;99.90;;;;;;5011165;28;20448;-71
2023/08/12 01:59:31;;;;;;;30.47;7.20;;;19.70;99.90;;;;;;5010970;28;20482;-72
2023/08/12 02:01:58;;;;;;;26.53;7.37;;;19.70;99.90;;;;;;5011140;28;20486;-71
2023/08/12 02:04:25;;;;;;;17.40;6.50;;;19.70;99.90;;;;;;5017158;28;20799;-71
2023/08/12 02:06:52;;;;;;;28.43;7.80;;;19.70;99.90;;;;;;5010508;28;20454;-72
2023/08/12 02:09:19;;;;;;;17.53;7.07;;;19.60;99.90;;;;;;5010834;28;20470;-72
2023/08/12 02:11:45;;;;;;;14.10;6.77;;;19.60;99.90;;;;;;5011444;28;20442;-71
2023/08/12 02:14:13;;;;;;;17.10;5.90;;;19.60;99.90;;;;;;5016373;28;20446;-72
2023/08/12 02:16:40;;;;;;;17.53;6.17;;;19.70;99.90;;;;;;5012201;28;20862;-72
2023/08/12 02:19:07;;;;;;;15.47;6.37;;;19.70;99.90;;;;;;5010601;28;20859;-71
2023/08/12 02:21:33;;;;;;;18.23;7.20;;;19.70;99.90;;;;;;5010784;28;20933;-72
2023/08/12 02:24:00;;;;;;;11.47;6.60;;;19.70;99.90;;;;;;5011327;28;20500;-72
2023/08/12 02:26:27;;;;;;;9.10;5.93;;;19.60;99.90;;;;;;5011014;28;20450;-72
2023/08/12 02:28:53;;;;;;;7.90;5.80;;;19.60;99.90;;;;;;5011070;28;20478;-71
2023/08/12 02:31:21;;;;;;;7.37;5.90;;;19.60;99.90;;;;;;5010224;28;20468;-71
2023/08/12 02:33:49;;;;;;;13.37;6.10;;;19.60;99.90;;;;;;5010538;28;20466;-71
2023/08/12 02:36:15;;;;;;;10.80;6.30;;;19.60;99.90;;;;;;5014466;28;20462;-71
2023/08/12 02:38:42;;;;;;;9.23;6.60;;;19.50;99.90;;;;;;5015197;28;20477;-72
2023/08/12 02:41:09;;;;;;;10.13;6.90;;;19.60;99.90;;;;;;5014665;28;20509;-73
2023/08/12 02:43:36;;;;;;;15.10;7.60;;;19.50;99.90;;;;;;5020222;28;20463;-71
2023/08/12 02:46:02;;;;;;;10.17;7.00;;;19.50;99.90;;;;;;5014794;28;20496;-71
2023/08/12 02:48:30;;;;;;;9.23;7.10;;;19.50;99.90;;;;;;5013865;28;20497;-71
2023/08/12 02:50:57;;;;;;;12.23;7.23;;;19.50;99.90;;;;;;5014824;28;20450;-71
2023/08/12 02:53:23;;;;;;;17.40;8.20;;;19.50;99.90;;;;;;5014825;28;20875;-70
2023/08/12 02:55:50;;;;;;;10.20;7.53;;;19.50;99.90;;;;;;5019174;28;21000;-71
2023/08/12 02:58:17;;;;;;;11.00;6.80;;;19.50;99.90;;;;;;5015500;28;20503;-71
2023/08/12 03:00:44;;;;;;;14.90;7.60;;;19.50;99.90;;;;;;5014599;28;20485;-71
2023/08/12 03:03:11;;;;;;;12.67;7.30;;;19.40;99.90;;;;;;5013878;28;21021;-70
2023/08/12 03:05:39;;;;;;;13.27;7.40;;;19.40;99.90;;;;;;5016360;28;20458;-71
2023/08/12 03:08:06;;;;;;;14.53;7.70;;;19.40;99.90;;;;;;5014336;28;20446;-71
2023/08/12 03:10:34;;;;;;;12.10;7.70;;;19.40;99.90;;;;;;5014239;28;20524;-71
2023/08/12 03:13:01;;;;;;;14.10;7.33;;;19.40;99.90;;;;;;5014130;28;20458;-71
2023/08/12 03:15:27;;;;;;;10.93;7.23;;;19.30;99.90;;;;;;5014366;28;20504;-70
2023/08/12 03:17:54;;;;;;;18.53;8.77;;;19.30;99.90;;;;;;5014371;28;20475;-70
2023/08/12 03:20:21;;;;;;;12.83;8.10;;;19.30;99.90;;;;;;5017488;28;20478;-71
2023/08/12 03:22:49;;;;;;;17.63;8.43;;;19.30;99.90;;;;;;5014130;28;20465;-71
2023/08/12 03:25:16;;;;;;;12.67;8.90;;;19.30;99.90;;;;;;5014152;28;20462;-71
2023/08/12 03:27:43;;;;;;;9.37;8.13;;;19.30;99.90;;;;;;5014038;28;20516;-70
2023/08/12 03:30:11;;;;;;;11.33;8.20;;;19.30;99.90;;;;;;5013542;28;20602;-71
2023/08/12 03:32:37;;;;;;;13.67;9.50;;;19.20;99.90;;;;;;5013496;28;21005;-71
2023/08/12 03:35:05;;;;;;;16.30;9.00;;;19.20;99.90;;;;;;5016034;28;20453;-70
2023/08/12 03:37:31;;;;;;;15.60;9.30;;;19.20;99.90;;;;;;5013663;28;20496;-70
2023/08/12 03:39:59;;;;;;;17.77;9.30;;;19.10;99.90;;;;;;5013540;28;20524;-71
2023/08/12 03:42:26;;;;;;;17.67;9.13;;;19.10;99.90;;;;;;5013758;28;20543;-71
2023/08/12 03:44:52;;;;;;;12.60;9.10;;;19.20;99.90;;;;;;5014214;28;20792;-71
2023/08/12 03:47:23;;;;;;;14.77;10.00;;;19.20;99.90;;;;;;5012567;28;20481;-72
2023/08/12 03:49:50;;;;;;;19.50;9.80;;;19.20;99.90;;;;;;5013261;28;20914;-71
2023/08/12 03:52:16;;;;;;;19.70;10.37;;;19.20;99.90;;;;;;5013412;28;21028;-72
2023/08/12 03:54:44;;;;;;;13.00;9.03;;;19.20;99.90;;;;;;5020263;28;20450;-71
2023/08/12 03:57:12;;;;;;;11.60;10.10;;;19.20;99.90;;;;;;5013595;28;20525;-71
2023/08/12 03:59:39;;;;;;;14.37;10.30;;;19.20;99.90;;;;;;5013413;28;20525;-71
2023/08/12 04:02:05;;;;;;;16.47;9.87;;;19.10;99.90;;;;;;5012888;28;20485;-72
2023/08/12 04:04:32;;;;;;;13.07;9.40;;;19.20;99.90;;;;;;5012741;28;20451;-72
2023/08/12 04:06:59;;;;;;;15.30;10.17;;;19.20;99.90;;;;;;5013197;28;20465;-71
2023/08/12 04:09:25;;;;;;;18.57;10.63;;;19.20;99.90;;;;;;5012594;28;20465;-71
2023/08/12 04:11:52;;;;;;;18.33;10.73;;;19.20;99.90;;;;;;5013167;28;20449;-71
2023/08/12 04:14:20;;;;;;;13.27;10.30;;;19.20;99.90;;;;;;5015027;28;20480;-71
2023/08/12 04:16:47;;;;;;;13.57;10.40;;;19.20;99.90;;;;;;5017693;28;20454;-71
2023/08/12 04:19:13;;;;;;;14.50;10.60;;;19.20;99.90;;;;;;5015081;28;20528;-71
2023/08/12 04:21:40;;;;;;;16.97;11.10;;;19.20;99.90;;;;;;5012775;28;20490;-71
2023/08/12 04:24:08;;;;;;;15.27;10.93;;;19.20;99.90;;;;;;5013227;28;20459;-71
2023/08/12 04:26:35;;;;;;;17.60;10.50;;;19.20;99.90;;;;;;5012904;28;20447;-72
2023/08/12 04:29:02;;;;;;;20.00;11.20;;;19.10;99.90;;;;;;5012370;28;20539;-71
2023/08/12 04:31:29;;;;;;;12.93;10.47;;;19.10;99.90;;;;;;5020834;28;20466;-71
2023/08/12 04:33:56;;;;;;;17.10;12.00;;;19.10;99.90;;;;;;5017757;28;20454;-70
2023/08/12 04:36:23;;;;;;;15.37;12.00;;;19.10;99.90;;;;;;5012644;28;20969;-70
2023/08/12 04:38:49;;;;;;;24.90;11.83;;;19.10;99.90;;;;;;5012332;28;20512;-71
2023/08/12 04:41:16;;;;;;;21.20;13.00;;;19.10;99.90;;;;;;5012215;28;20485;-71
2023/08/12 04:43:43;;;;;;;19.70;13.20;;;19.10;99.90;;;;;;5013130;28;20474;-71
2023/08/12 04:46:09;;;;;;;25.93;13.17;;;19.10;99.90;;;;;;5012461;28;20513;-71
2023/08/12 04:48:37;;;;;;;20.97;13.50;;;19.10;99.90;;;;;;5012489;28;20544;-71
2023/08/12 04:51:05;;;;;;;25.83;12.50;;;19.10;99.90;;;;;;5012473;28;20996;-71
2023/08/12 04:53:32;;;;;;;25.27;12.33;;;19.10;99.90;;;;;;5012436;28;20446;-71
2023/08/12 04:55:58;;;;;;;23.13;12.87;;;19.00;99.90;;;;;;5012479;28;20443;-71
2023/08/12 04:58:25;;;;;;;16.97;12.00;;;19.00;99.90;;;;;;5020299;28;20449;-70
2023/08/12 05:00:52;;;;;;;17.23;11.83;;;18.90;99.90;;;;;;5012029;28;20473;-71
2023/08/12 05:03:19;;;;;;;14.53;12.10;;;18.90;99.90;;;;;;5012309;28;20529;-70
2023/08/12 05:05:52;;;;;;;18.30;11.77;;;18.80;99.90;;;;;;5011984;28;20462;-71
2023/08/12 05:08:18;;;;;;;17.70;12.60;;;18.80;99.90;;;;;;5011852;28;20478;-70
2023/08/12 05:10:47;;;;;;;18.47;12.53;;;18.80;99.90;;;;;;5011726;28;20794;-70
2023/08/12 05:13:14;;;;;;;20.57;13.07;;;18.90;99.90;;;;;;5012159;28;20500;-70
2023/08/12 05:15:41;;;;;;;19.80;11.90;;;18.90;99.90;;;;;;5016534;28;20953;-70
2023/08/12 05:18:08;;;;;;;19.27;12.00;;;18.90;99.90;;;;;;5012045;28;20458;-70
2023/08/12 05:20:34;;;;;;;13.50;11.77;;;18.90;99.90;;;;;;5011769;28;20442;-70
2023/08/12 05:23:02;;;;;;;21.83;13.37;;;19.00;99.90;;;;;;5011821;28;20486;-70
2023/08/12 05:25:29;;;;;;;24.33;12.70;;;19.00;99.90;;;;;;5011032;28;20454;-70
2023/08/12 05:27:56;;;;;;;18.90;12.57;;;19.00;99.90;;;;;;5011297;28;20585;-70
2023/08/12 05:30:22;;;;;;;18.53;11.90;;;19.00;99.90;;;;;;5011214;28;20474;-69
2023/08/12 05:32:49;;;;;;;15.33;12.47;;;19.10;99.90;;;;;;5011854;28;20504;-68
2023/08/12 05:35:16;;;;;;;19.27;12.43;;;19.20;99.90;;;;;;5013792;28;20453;-68
2023/08/12 05:37:42;;;;;;;21.67;11.73;;;19.20;99.90;;;;;;5011120;28;20497;-69
2023/08/12 05:40:12;;;;;;;20.17;12.40;;;19.20;99.90;;;;;;5010810;28;20472;-68
2023/08/12 05:42:38;;;;;;;16.97;11.70;;;19.20;99.90;;;;;;5010873;28;20490;-67
2023/08/12 05:45:06;;;;;;;22.23;13.27;;;19.20;99.90;;;;;;5013129;28;20516;-68
2023/08/12 05:47:33;;;;;;;17.97;13.27;;;19.20;99.90;;;;;;5010576;28;20532;-69
2023/08/12 05:49:59;;;;;;;20.23;13.97;;;19.30;99.90;;;;;;5010604;28;20474;-68
2023/08/12 05:52:26;;;;;;;20.03;13.50;;;19.30;99.90;;;;;;5010789;28;20450;-68
2023/08/12 05:54:53;;;;;;;19.20;12.87;;;19.30;99.90;;;;;;5011454;28;20504;-68
2023/08/12 05:57:21;;;;;;;18.87;12.17;;;19.40;99.90;;;;;;5011290;28;20869;-68
2023/08/12 05:59:47;;;;;;;16.67;13.60;;;19.40;99.90;;;;;;5011075;28;20462;-68
2023/08/12 06:02:14;;;;;;;18.90;13.27;;;19.50;99.90;;;;;;5012842;28;20490;-68
2023/08/12 06:04:41;;;;;;;18.20;12.80;;;19.50;99.90;;;;;;5011328;28;20447;-69
2023/08/12 06:07:08;;;;;;;23.20;12.43;;;19.60;99.90;;;;;;5011065;28;20497;-69
2023/08/12 06:09:34;;;;;;;14.83;12.77;;;19.60;99.90;;;;;;5010368;28;20470;-68
2023/08/12 06:12:01;;;;;;;18.33;13.00;;;19.70;99.90;;;;;;5011494;28;20450;-68
2023/08/12 06:14:29;;;;;;;24.20;14.17;;;19.80;99.90;;;;;;5011407;28;20465;-69
2023/08/12 06:16:56;;;;;;;14.27;12.10;;;19.90;99.90;;;;;;5014712;28;20511;-68
2023/08/12 06:19:22;;;;;;;16.90;12.90;;;20.00;99.90;;;;;;5013313;28;20528;-69
2023/08/12 06:21:49;;;;;;;14.13;11.57;;;19.90;99.90;;;;;;5010633;28;20548;-69
2023/08/12 06:24:15;;;;;;;14.67;12.33;;;19.90;99.90;;;;;;5010927;28;20459;-69
2023/08/12 06:26:42;;;;;;;15.33;12.20;;;19.90;99.90;;;;;;5010825;28;20480;-69
2023/08/12 06:29:09;;;;;;;20.23;12.47;;;20.00;99.90;;;;;;5017533;28;21000;-69
2023/08/12 06:31:37;;;;;;;15.97;11.00;;;20.30;99.90;;;;;;5022593;28;20511;-69
2023/08/12 06:34:03;;;;;;;19.60;11.60;;;20.80;99.90;;;;;;5010511;28;20454;-69
2023/08/12 06:36:30;;;;;;;17.10;11.50;;;21.10;99.90;;;;;;5010764;28;20454;-69
2023/08/12 06:38:57;;;;;;;17.70;10.83;;;21.30;99.90;;;;;;5007930;28;20466;-69
2023/08/12 06:41:23;;;;;;;14.43;11.13;;;21.30;99.90;;;;;;5010382;28;20508;-69
2023/08/12 06:43:50;;;;;;;16.40;11.33;;;21.30;99.90;;;;;;5010054;28;20459;-69
2023/08/12 06:46:17;;;;;;;13.67;10.30;;;21.30;99.90;;;;;;5009549;28;20550;-69
2023/08/12 06:48:45;;;;;;;15.43;11.03;;;21.40;99.90;;;;;;5010144;28;20543;-70
2023/08/12 06:51:11;;;;;;;15.73;10.90;;;21.80;99.90;;;;;;5010379;28;20540;-67
2023/08/12 06:53:38;;;;;;;14.07;10.17;;;22.20;99.90;;;;;;5010506;28;21008;-69
2023/08/12 06:56:05;;;;;;;13.77;10.60;;;22.50;99.90;;;;;;5010699;28;20454;-68
2023/08/12 06:58:32;;;;;;;11.80;10.70;;;22.70;99.90;;;;;;5010515;28;20466;-68
2023/08/12 07:00:59;;;;;;;13.30;9.90;;;22.80;99.90;;;;;;5010532;28;20495;-66
2023/08/12 07:03:26;;;;;;;15.17;11.43;;;22.80;99.90;;;;;;5010480;28;20482;-67
2023/08/12 07:05:54;;;;;;;12.73;10.23;;;22.50;99.90;;;;;;5010642;28;20464;-68
2023/08/12 07:08:21;;;;;;;14.20;11.67;;;22.20;99.90;;;;;;5010528;28;20446;-68
2023/08/12 07:10:47;;;;;;;16.10;12.00;;;22.00;99.90;;;;;;5010365;28;20504;-68
2023/08/12 07:13:14;;;;;;;19.07;12.33;;;21.70;99.90;;;;;;5009874;28;20473;-69
2023/08/12 07:15:40;;;;;;;18.77;13.13;;;21.60;99.90;;;;;;5009467;28;20523;-69
2023/08/12 07:18:07;;;;;;;16.80;12.03;;;21.40;99.90;;;;;;5010576;28;20508;-71
2023/08/12 07:20:34;;;;;;;16.00;13.03;;;21.20;99.90;;;;;;5010532;28;20543;-70
2023/08/12 07:23:02;;;;;;;17.20;11.83;;;21.30;99.90;;;;;;5012674;28;20917;-69
2023/08/12 07:25:28;;;;;;;13.90;12.50;;;21.60;99.90;;;;;;5013316;28;21187;-69
2023/08/12 07:27:55;;;;;;;12.73;10.70;;;21.90;99.90;;;;;;5013589;28;20450;-68
2023/08/12 07:30:21;;;;;;;14.80;12.13;;;22.00;99.90;;;;;;5011983;28;20486;-66
2023/08/12 07:32:48;;;;;;;14.80;11.47;;;22.20;99.90;;;;;;5011595;28;20450;-67
2023/08/12 07:35:15;;;;;;;13.77;10.73;;;22.40;99.90;;;;;;5009078;28;21158;-68
2023/08/12 07:37:42;;;;;;;20.43;12.03;;;22.60;99.90;;;;;;5009070;28;20454;-68
2023/08/12 07:40:12;;;;;;;18.03;11.87;;;22.90;99.90;;;;;;5010847;28;20833;-69
2023/08/12 07:42:39;;;;;;;17.33;11.20;;;22.90;99.90;;;;;;5013064;28;20500;-68
2023/08/12 07:45:07;;;;;;;14.60;10.87;;;23.20;99.90;;;;;;5013800;28;20466;-68
2023/08/12 07:47:33;;;;;;;14.00;10.53;;;23.10;99.90;;;;;;5012507;28;20474;-68
2023/08/12 07:50:00;;;;;;;19.50;11.90;;;22.90;99.90;;;;;;5013120;28;20841;-68
2023/08/12 07:52:26;;;;;;;16.17;11.67;;;22.70;99.90;;;;;;5010900;28;20447;-68
2023/08/12 07:54:53;;;;;;;19.90;12.00;;;22.50;99.90;;;;;;5012977;28;20459;-68
2023/08/12 07:57:23;;;;;;;13.67;10.63;;;22.40;99.90;;;;;;5013390;28;20524;-68
2023/08/12 07:59:50;;;;;;;14.33;10.80;;;22.30;99.90;;;;;;5011425;28;20505;-68
2023/08/12 08:02:17;;;;;;;17.73;11.43;;;22.30;99.90;;;;;;5011834;28;20482;-68
2023/08/12 08:04:43;;;;;;;15.53;11.87;;;22.20;99.90;;;;;;5012455;28;20466;-67
2023/08/12 08:07:12;;;;;;;17.00;12.20;;;22.10;99.90;;;;;;5012302;28;20461;-68
2023/08/12 08:09:39;;;;;;;28.50;12.10;;;22.00;99.90;;;;;;5011585;28;20477;-69
2023/08/12 08:12:07;;;;;;;15.73;12.70;;;21.80;99.90;;;;;;5012219;28;20473;-69
2023/08/12 08:14:35;;;;;;;17.00;13.30;;;21.80;99.90;;;;;;5012365;28;20458;-68
2023/08/12 08:17:01;;;;;;;19.10;13.40;;;21.80;99.90;;;;;;5012325;28;20454;-68
2023/08/12 08:19:28;;;;;;;17.10;12.73;;;21.80;99.90;;;;;;5008997;28;20525;-69
2023/08/12 08:21:55;;;;;;;16.60;13.80;;;21.90;99.90;;;;;;5013039;28;20447;-68
2023/08/12 08:24:21;;;;;;;17.33;12.03;;;22.00;99.90;;;;;;5018068;28;20417;-68
2023/08/12 08:26:48;;;;;;;18.00;12.67;;;22.10;99.90;;;;;;5011792;28;20512;-69
2023/08/12 08:29:14;;;;;;;18.40;13.37;;;22.00;99.90;;;;;;5009874;28;20478;-69
2023/08/12 08:31:43;;;;;;;16.30;13.43;;;22.00;99.90;;;;;;5012147;28;20465;-69
2023/08/12 08:34:10;;;;;;;16.83;14.00;;;22.00;99.90;;;;;;5010323;28;20481;-69
2023/08/12 08:36:37;;;;;;;23.93;16.10;;;21.90;99.90;;;;;;5011615;28;20450;-69
2023/08/12 08:39:04;;;;;;;21.27;16.07;;;21.80;99.90;;;;;;5011153;28;20518;-68
2023/08/12 08:41:32;;;;;;;18.70;15.47;;;21.70;99.90;;;;;;5013061;28;20524;-70
2023/08/12 08:44:04;;;;;;;20.57;16.07;;;21.60;99.90;;;;;;5007245;28;20496;-70
2023/08/12 08:46:30;;;;;;;28.27;17.90;;;21.50;99.90;;;;;;5011024;28;20454;-69
2023/08/12 08:49:00;;;;;;;20.60;15.30;;;21.40;99.90;;;;;;5011374;28;20466;-69
2023/08/12 08:51:30;;;;;;;24.90;17.60;;;21.50;99.90;;;;;;5011507;28;21018;-70
2023/08/12 08:53:57;;;;;;;25.90;17.07;;;21.60;99.90;;;;;;5011594;28;20493;-71
2023/08/12 08:56:25;;;;;;;20.93;16.50;;;21.70;99.90;;;;;;5010967;28;20503;-71
2023/08/12 08:58:51;;;;;;;21.33;15.77;;;21.90;99.90;;;;;;5011223;28;20821;-71
2023/08/12 09:01:22;;;;;;;25.43;17.77;;;22.00;99.90;;;;;;5010971;28;20453;-71
2023/08/12 09:03:50;;;;;;;20.37;16.90;;;22.10;99.90;;;;;;5011051;28;20500;-70
2023/08/12 09:06:19;;;;;;;18.47;15.70;;;22.40;99.90;;;;;;5011452;28;20504;-71
2023/08/12 09:08:49;;;;;;;17.40;14.60;;;22.50;99.90;;;;;;5011804;28;20528;-70
2023/08/12 09:11:18;;;;;;;20.87;16.87;;;22.50;99.90;;;;;;5014726;28;20505;-71
2023/08/12 09:13:45;;;;;;;23.20;18.00;;;22.40;99.90;;;;;;5007678;28;20450;-70
2023/08/12 09:16:12;;;;;;;22.23;16.13;;;22.30;99.90;;;;;;5012418;28;20988;-70
2023/08/12 09:18:39;;;;;;;20.80;15.40;;;22.40;99.90;;;;;;5011686;28;20891;-71
2023/08/12 09:21:06;;;;;;;23.07;14.00;;;22.50;99.90;;;;;;5010628;28;20524;-68
2023/08/12 09:23:37;;;;;;;14.40;12.90;;;22.40;99.90;;;;;;5011588;28;20490;-69
2023/08/12 09:26:13;;;;;;;18.47;14.27;;;22.40;99.90;;;;;;5014048;28;20969;-68
2023/08/12 09:28:40;;;;;;;16.90;12.40;;;22.40;99.90;;;;;;5010891;28;20520;-69
2023/08/12 09:31:07;;;;;;;18.67;13.97;;;22.40;99.90;;;;;;5010321;28;20457;-68
2023/08/12 09:33:33;;;;;;;16.70;13.00;;;22.40;99.90;;;;;;5016975;28;20501;-68
2023/08/12 09:36:00;;;;;;;16.77;12.63;;;22.50;99.90;;;;;;5011430;28;20512;-69
2023/08/12 09:38:27;;;;;;;20.60;13.17;;;22.50;99.90;;;;;;5011021;28;20450;-68
2023/08/12 09:40:55;;;;;;;17.47;14.40;;;22.60;99.90;;;;;;5010461;28;20531;-69
2023/08/12 09:43:24;;;;;;;23.67;14.00;;;22.50;99.90;;;;;;5011011;28;20482;-69
2023/08/12 09:45:51;;;;;;;15.23;13.00;;;22.50;99.90;;;;;;5011104;28;20450;-69
2023/08/12 09:48:18;;;;;;;13.93;12.43;;;22.50;99.90;;;;;;5011171;28;20984;-69
2023/08/12 09:50:45;;;;;;;13.90;12.40;;;22.50;99.90;;;;;;5010795;28;20461;-69
2023/08/12 09:53:12;;;;;;;13.70;11.87;;;22.50;99.90;;;;;;5010856;28;20455;-69
2023/08/12 09:55:41;;;;;;;28.93;12.40;;;22.60;99.90;;;;;;5010666;28;20453;-69
2023/08/12 09:58:11;;;;;;;14.20;11.73;;;22.60;99.90;;;;;;5010693;28;20508;-69
2023/08/12 10:00:38;;;;;;;15.50;11.70;;;22.70;99.90;;;;;;5010511;28;20925;-68
2023/08/12 10:03:06;;;;;;;15.50;12.10;;;22.80;99.90;;;;;;5010454;28;20490;-68
2023/08/12 10:05:34;;;;;;;19.90;13.10;;;23.10;99.90;;;;;;5002003;28;20450;-69
2023/08/12 10:08:02;;;;;;;16.60;10.80;;;23.20;99.90;;;;;;5010395;28;20557;-70
2023/08/12 10:10:31;;;;;;;15.97;11.07;;;23.40;99.90;;;;;;5010334;28;20979;-70
2023/08/12 10:12:59;;;;;;;13.53;11.90;;;23.50;99.90;;;;;;5010553;28;20490;-71
2023/08/12 10:15:27;;;;;;;12.40;10.60;;;23.70;99.90;;;;;;5011945;28;20461;-71
2023/08/12 10:17:54;;;;;;;11.97;10.37;;;24.00;99.90;;;;;;5010185;28;20466;-70
2023/08/12 10:20:22;;;;;;;13.03;11.63;;;24.10;99.90;;;;;;5010245;28;20528;-71
2023/08/12 10:22:49;;;;;;;14.30;10.80;;;24.10;99.90;;;;;;5010200;28;20454;-71
2023/08/12 10:25:18;;;;;;;10.60;9.60;;;24.20;99.90;;;;;;5010132;28;20446;-70
2023/08/12 10:27:45;;;;;;;9.40;8.40;;;24.20;99.90;;;;;;5015628;28;20449;-71
2023/08/12 10:30:14;;;;;;;10.20;9.10;;;24.20;99.90;;;;;;5009988;28;20462;-70
2023/08/12 10:32:43;;;;;;;8.33;7.13;;;24.20;99.90;;;;;;5009982;28;20942;-70
2023/08/12 10:35:10;;;;;;;8.17;6.67;;;24.20;99.90;;;;;;5010524;28;20865;-69
2023/08/12 10:37:38;;;;;;;7.37;6.43;;;24.10;99.90;;;;;;5008864;28;20445;-69
2023/08/12 10:40:07;;;;;;;13.13;8.23;;;24.10;99.90;;;;;;5010647;28;20520;-69
2023/08/12 10:42:44;;;;;;;10.60;8.50;;;24.00;99.90;;;;;;5010882;28;20458;-70
2023/08/12 10:45:12;;;;;;;11.67;9.10;;;23.80;99.90;;;;;;5010227;28;20450;-68
2023/08/12 10:47:42;;;;;;;10.70;9.53;;;23.80;99.90;;;;;;5007934;28;20447;-67
2023/08/12 10:50:19;;;;;;;10.23;8.13;;;23.70;99.90;;;;;;5010114;28;20470;-68
2023/08/12 10:52:45;;;;;;;8.73;7.53;;;23.60;99.90;;;;;;5010665;28;20453;-67
2023/08/12 10:55:19;;;;;;;17.30;7.37;;;23.50;99.90;;;;;;5010582;28;20446;-68
2023/08/12 10:57:46;;;;;;;9.37;7.50;;;23.40;99.90;;;;;;5013172;28;20481;-70
2023/08/12 11:00:15;;;;;;;9.90;8.90;;;23.30;99.90;;;;;;5014588;28;20548;-69
2023/08/12 11:02:45;;;;;;;12.47;8.80;;;23.20;99.90;;;;;;5014284;28;20458;-69
2023/08/12 11:05:13;;;;;;;12.23;9.10;;;23.10;99.90;;;;;;5013121;28;20449;-68
2023/08/12 11:07:41;;;;;;;10.17;9.17;;;23.00;99.90;;;;;;5012963;28;20450;-69
2023/08/12 11:10:13;;;;;;;16.00;10.20;;;22.90;99.90;;;;;;5005744;28;20473;-68
2023/08/12 11:12:41;;;;;;;17.77;10.60;;;22.80;99.90;;;;;;5013357;28;21039;-68
2023/08/12 11:15:09;;;;;;;12.43;9.10;;;22.80;99.90;;;;;;5016301;28;20462;-69
2023/08/12 11:17:37;;;;;;;13.67;10.77;;;22.80;99.90;;;;;;5011685;28;20508;-69
2023/08/12 11:20:09;;;;;;;12.00;9.63;;;22.80;99.90;;;;;;5013209;28;20553;-69
2023/08/12 11:22:38;;;;;;;15.40;10.30;;;22.70;99.90;;;;;;5013411;28;20466;-67
2023/08/12 11:25:08;;;;;;;14.90;9.90;;;22.60;99.90;;;;;;5016677;28;20865;-67
2023/08/12 11:27:39;;;;;;;11.87;9.60;;;22.50;99.90;;;;;;5013312;28;20454;-68
2023/08/12 11:30:07;;;;;;;11.77;9.07;;;22.50;99.90;;;;;;5013432;28;20465;-67
2023/08/12 11:32:34;;;;;;;10.30;9.20;;;22.50;99.90;;;;;;5013098;28;20465;-67
2023/08/12 11:35:01;;;;;;;14.43;9.13;;;22.40;99.90;;;;;;5013920;28;20443;-67
2023/08/12 11:37:29;;;;;;;12.07;10.00;;;22.40;99.90;;;;;;5013571;28;20877;-67
2023/08/12 11:39:56;;;;;;;18.00;10.93;;;22.40;99.90;;;;;;5012843;28;20486;-67
2023/08/12 11:42:22;;;;;;;13.83;10.23;;;22.40;99.90;;;;;;5013063;28;20500;-68
2023/08/12 11:44:49;;;;;;;11.17;9.93;;;22.70;99.90;;;;;;5012897;28;20500;-69
2023/08/12 11:47:16;;;;;;;12.10;7.70;;;23.40;99.90;;;;;;5013261;28;20477;-66
2023/08/12 11:49:42;;;;;;;7.63;6.93;;;23.90;99.90;;;;;;5012945;28;20815;-67
2023/08/12 11:52:10;;;;;;;7.17;6.20;;;24.30;99.90;;;;;;5013421;28;20480;-67
2023/08/12 11:54:39;;;;;;;10.00;6.30;;;24.90;99.90;;;;;;5012728;28;20454;-66
2023/08/12 11:57:06;;;;;;;6.17;4.70;;;25.30;99.90;;;;;;5010872;28;20693;-67
2023/08/12 11:59:33;;;;;;;4.97;4.47;;;25.60;99.90;;;;;;5017037;28;20531;-67
2023/08/12 12:02:02;;;;;;;5.07;4.67;;;25.70;99.90;;;;;;5013186;28;20463;-66
2023/08/12 12:04:31;;;;;;;5.33;4.83;;;25.30;99.90;;;;;;5007453;28;20490;-67
2023/08/12 12:06:59;;;;;;;5.70;5.10;;;25.00;99.90;;;;;;5010969;28;20973;-66
2023/08/12 12:09:26;;;;;;;7.37;5.13;;;24.90;99.90;;;;;;5011960;28;20516;-67
2023/08/12 12:11:54;;;;;;;8.53;4.80;;;24.70;99.90;;;;;;5012204;28;21024;-68
2023/08/12 12:14:22;;;;;;;6.30;4.60;;;24.70;99.90;;;;;;5012747;28;20570;-65
2023/08/12 12:16:50;;;;;;;7.00;4.70;;;24.60;99.90;;;;;;5012221;28;20462;-66
2023/08/12 12:19:19;;;;;;;4.20;3.80;;;24.40;99.90;;;;;;5011886;28;20506;-66
2023/08/12 12:21:47;;;;;;;4.83;4.10;;;24.40;99.90;;;;;;5012091;28;21055;-66
2023/08/12 12:24:14;;;;;;;5.03;4.20;;;24.30;99.90;;;;;;5012610;28;20493;-66
2023/08/12 12:26:41;;;;;;;5.23;4.73;;;24.40;99.90;;;;;;5012811;28;20474;-65
2023/08/12 12:29:11;;;;;;;9.57;5.00;;;24.40;99.90;;;;;;5018132;28;20528;-65
2023/08/12 12:31:38;;;;;;;5.60;4.10;;;24.30;99.90;;;;;;5011915;28;21029;-66
2023/08/12 12:34:05;;;;;;;7.93;4.60;;;24.30;99.90;;;;;;5011568;28;20447;-66